Huvudsida
METAR-TAF:

METAR-TAF

Flygplatser :

Rosh Pina Airport

Rosh Pinna, Israel

latitud: 32-58-48N, longitud: 035-34-12E, höjd: 281 m

Aktuellt väderrapport

Denna rapport gjordes för 3 timmar och 48 minuter sedan, klockan 15:50 UTC
Vind 5 kt från nord/nordväst
Temperatur 25°C
Fuktighet 14%
Tryck 1016 hPa
Sikt 10 km eller mer
Inga moln under 1 500 m eller inga cumulonimbus

METAR: LLIB 111550Z 33005KT CAVOK 25/M04 Q1016

Tid: 21:38 (19:38 UTC)

Väderprognos

Denna rapport gjordes för 8 timmar och 28 minuter sedan, klockan 11:10 UTC
Prognos gäller från 11 kl. 12 UTC till 12 kl. 12 UTC
Vind 10 kt från ost
Sikt 10 km eller mer
Inga moln under 1 500 m eller inga cumulonimbus
Blir
från 11 kl. 16 UTC till 11 kl. 18 UTC
Vind 4 kt varierande vindriktning
Blir
från 12 kl. 06 UTC till 12 kl. 08 UTC
Vind 10 kt från ost

TAF: LLIB 111110Z 1112/1212 10010KT CAVOK BECMG 1116/1118 VRB04KT BECMG 1206/1208 10010KT TX31/1112Z TN20/1204Z

Aktuella väderrapporter och prognoser från 4000 flygplatser (METAR- och TAF-rapporter).

De tillgängliga stationerna syns som gula och röda prickar på kartan.

För musen över prickarna för att se namnen på stationerna.

Klicka sedan för att få väderrapporter och prognoser.

För att ändra kartan: Klicka på de gröna knapparna med ett svart kors på för att zooma in; den gröna knappen med ett streck på för att zooma ut; eller på de gröna pilarna för angränsande kartor.


METAR-TAF: